createdAt,value
2022-07-30T00:00:59.047Z,45.08
2022-07-30T00:06:01.988Z,47.00
2022-07-30T00:11:05.145Z,44.25
2022-07-30T00:16:09.555Z,44.38
2022-07-30T00:21:12.589Z,44.58
2022-07-30T00:26:35.576Z,44.08
2022-07-30T00:31:40.570Z,43.85
2022-07-30T00:36:43.534Z,44.55
2022-07-30T00:42:00.629Z,44.10
2022-07-30T00:47:05.212Z,44.72
2022-07-30T00:52:08.149Z,45.33
2022-07-30T00:57:11.145Z,47.13
2022-07-30T01:02:15.556Z,45.05
2022-07-30T01:07:18.506Z,44.40
2022-07-30T01:12:23.356Z,44.20
2022-07-30T01:17:27.891Z,44.63
2022-07-30T01:22:40.365Z,44.33
2022-07-30T01:27:49.591Z,45.15
2022-07-30T01:32:55.274Z,45.80
2022-07-30T01:38:00.847Z,44.38
2022-07-30T01:43:07.400Z,45.10
2022-07-30T01:48:13.361Z,44.13
2022-07-30T01:53:18.098Z,44.92
2022-07-30T01:58:25.542Z,44.33
2022-07-30T02:03:31.101Z,45.17
2022-07-30T02:08:40.029Z,44.67
2022-07-30T02:13:51.625Z,43.92
2022-07-30T02:19:04.271Z,44.55
2022-07-30T02:24:21.047Z,44.63
2022-07-30T02:29:26.558Z,44.88
2022-07-30T02:34:33.749Z,45.28
2022-07-30T02:39:38.217Z,44.42
2022-07-30T02:44:45.046Z,45.75
2022-07-30T02:49:49.554Z,44.97
2022-07-30T02:54:54.063Z,44.58
2022-07-30T02:59:59.606Z,45.13
2022-07-30T03:05:05.532Z,44.03
2022-07-30T03:10:09.760Z,44.70
2022-07-30T03:15:14.856Z,43.83
2022-07-30T03:20:24.435Z,43.72
2022-07-30T03:25:29.174Z,44.83
2022-07-30T03:30:35.478Z,44.42
2022-07-30T03:35:39.271Z,45.33
2022-07-30T03:40:43.470Z,44.58
2022-07-30T03:45:49.380Z,44.78
2022-07-30T03:50:55.491Z,44.58
2022-07-30T03:55:59.900Z,44.67
2022-07-30T04:01:36.737Z,43.45
2022-07-30T04:06:48.838Z,45.97
2022-07-30T04:11:52.037Z,44.42
2022-07-30T04:17:05.475Z,43.70
2022-07-30T04:22:10.489Z,43.65
2022-07-30T04:27:15.733Z,43.70
2022-07-30T04:32:20.426Z,44.88
2022-07-30T04:37:58.334Z,44.72
2022-07-30T04:43:01.768Z,44.50
2022-07-30T04:48:06.657Z,44.38
2022-07-30T04:53:19.705Z,44.53
2022-07-30T04:58:34.623Z,44.90
2022-07-30T05:03:40.954Z,45.72
2022-07-30T05:08:44.114Z,45.30
2022-07-30T05:13:49.392Z,45.33
2022-07-30T05:18:57.878Z,46.75
2022-07-30T05:24:00.850Z,45.28
2022-07-30T05:29:18.663Z,44.75
2022-07-30T05:34:28.658Z,45.10
2022-07-30T05:39:31.722Z,44.83
2022-07-30T05:45:01.730Z,44.53
2022-07-30T05:50:07.397Z,44.83
2022-07-30T05:55:11.183Z,45.78
2022-07-30T06:00:29.144Z,45.00
2022-07-30T06:05:33.684Z,44.78
2022-07-30T06:10:38.043Z,43.90
2022-07-30T06:15:41.106Z,44.95
2022-07-30T06:20:45.575Z,44.58
2022-07-30T06:25:49.433Z,44.75
2022-07-30T06:30:52.644Z,46.08
2022-07-30T06:35:59.347Z,46.10
2022-07-30T06:41:06.292Z,44.97
2022-07-30T06:46:21.332Z,45.85
2022-07-30T06:51:27.856Z,45.17
2022-07-30T06:56:30.756Z,45.17
2022-07-30T07:01:39.316Z,44.65
2022-07-30T07:06:43.771Z,45.13
2022-07-30T07:11:51.506Z,45.55
2022-07-30T07:16:55.947Z,45.45
2022-07-30T07:22:18.837Z,46.17
2022-07-30T07:27:22.114Z,45.97
2022-07-30T07:32:28.007Z,46.22
2022-07-30T07:37:32.226Z,46.70
2022-07-30T07:42:35.327Z,47.78
2022-07-30T07:47:51.527Z,45.95
2022-07-30T07:53:18.004Z,45.33
2022-07-30T07:58:26.254Z,46.25
2022-07-30T08:03:31.898Z,46.45
2022-07-30T08:08:39.386Z,47.78
2022-07-30T08:14:05.085Z,47.08
2022-07-30T08:19:39.943Z,45.85
2022-07-30T08:24:49.801Z,46.15
2022-07-30T08:29:52.733Z,46.15
2022-07-30T08:34:55.714Z,46.25
2022-07-30T08:40:00.283Z,47.97
2022-07-30T08:45:03.671Z,45.65
2022-07-30T08:50:09.859Z,46.65
2022-07-30T08:55:22.970Z,46.35
2022-07-30T09:00:27.218Z,46.10
2022-07-30T09:05:30.129Z,46.30
2022-07-30T09:10:42.434Z,45.75
2022-07-30T09:15:57.134Z,45.50
2022-07-30T09:21:02.464Z,46.55
2022-07-30T09:26:06.787Z,45.47
2022-07-30T09:31:23.786Z,46.13
2022-07-30T09:36:45.771Z,45.60
2022-07-30T09:41:59.670Z,46.35
2022-07-30T09:47:03.048Z,45.42
2022-07-30T09:52:29.090Z,45.15
2022-07-30T09:57:33.646Z,45.45
2022-07-30T10:02:41.470Z,45.50
2022-07-30T10:08:09.179Z,45.45
2022-07-30T10:13:22.474Z,45.92
2022-07-30T10:18:27.279Z,46.15
2022-07-30T10:23:50.774Z,46.85
2022-07-30T10:29:16.058Z,45.40
2022-07-30T10:34:23.528Z,44.92
2022-07-30T10:39:35.320Z,45.20
2022-07-30T10:45:17.651Z,45.75
2022-07-30T10:50:26.717Z,45.67
2022-07-30T10:55:37.446Z,45.72
2022-07-30T11:01:01.476Z,45.28
2022-07-30T11:06:29.161Z,45.13
2022-07-30T11:12:02.200Z,45.25
2022-07-30T11:17:11.104Z,46.05
2022-07-30T11:22:26.596Z,44.95
2022-07-30T11:27:37.956Z,45.38
2022-07-30T11:32:42.683Z,45.60
2022-07-30T11:38:06.881Z,45.95
2022-07-30T11:43:25.616Z,45.05
2022-07-30T11:48:42.073Z,45.33
2022-07-30T11:53:46.113Z,45.72
2022-07-30T11:58:49.012Z,45.58
2022-07-30T12:03:56.886Z,45.97
2022-07-30T12:09:00.774Z,45.92
2022-07-30T12:14:04.735Z,45.55
2022-07-30T12:19:09.702Z,45.95
2022-07-30T12:24:13.681Z,45.28
2022-07-30T12:29:16.970Z,45.08
2022-07-30T12:34:23.070Z,45.10
2022-07-30T12:39:27.803Z,45.35
2022-07-30T12:44:38.750Z,45.13
2022-07-30T12:49:48.593Z,45.88
2022-07-30T12:55:00.498Z,46.55
2022-07-30T13:00:07.092Z,45.35
2022-07-30T13:05:12.193Z,44.78
2022-07-30T13:10:18.766Z,44.85
2022-07-30T13:15:23.172Z,45.13
2022-07-30T13:20:27.428Z,45.35
2022-07-30T13:25:38.539Z,46.50
2022-07-30T13:30:42.409Z,44.83
2022-07-30T13:35:46.741Z,45.00
2022-07-30T13:40:49.698Z,45.03
2022-07-30T13:45:53.098Z,44.90
2022-07-30T13:50:57.447Z,45.05
2022-07-30T13:56:00.468Z,45.35
2022-07-30T14:01:03.556Z,45.25
2022-07-30T14:06:10.479Z,45.08
2022-07-30T14:11:14.352Z,45.05
2022-07-30T14:16:43.749Z,44.85
2022-07-30T14:21:43.471Z,45.05
2022-07-30T14:26:48.292Z,45.25
2022-07-30T14:31:51.660Z,44.35
2022-07-30T14:36:55.911Z,45.08
2022-07-30T14:41:58.796Z,44.78
2022-07-30T14:47:14.968Z,44.85
2022-07-30T14:52:19.234Z,44.67
2022-07-30T14:57:22.400Z,44.67
2022-07-30T15:02:25.310Z,45.20
2022-07-30T15:07:30.209Z,45.00
2022-07-30T15:12:37.546Z,44.85
2022-07-30T15:17:41.121Z,45.10
2022-07-30T15:22:45.438Z,45.00
2022-07-30T15:27:48.348Z,45.03
2022-07-30T15:32:51.282Z,45.13
2022-07-30T15:37:55.546Z,44.90
2022-07-30T15:42:58.859Z,45.25
2022-07-30T15:48:01.999Z,45.05
2022-07-30T15:53:10.024Z,44.83
2022-07-30T15:58:13.970Z,45.35
2022-07-30T16:03:16.924Z,44.90
2022-07-30T16:08:21.235Z,45.80
2022-07-30T16:13:24.140Z,45.58
2022-07-30T16:18:27.127Z,45.53
2022-07-30T16:23:36.284Z,45.15
2022-07-30T16:28:40.431Z,45.15
2022-07-30T16:33:43.403Z,45.10
2022-07-30T16:38:47.654Z,46.30
2022-07-30T16:43:50.578Z,45.25
2022-07-30T16:48:54.346Z,45.38
2022-07-30T16:54:00.085Z,46.15
2022-07-30T16:59:03.179Z,44.90
2022-07-30T17:04:06.231Z,45.92
2022-07-30T17:09:10.645Z,45.22
2022-07-30T17:14:22.112Z,45.50
2022-07-30T17:19:25.139Z,45.28
2022-07-30T17:24:29.441Z,45.15
2022-07-30T17:29:32.419Z,45.30
2022-07-30T17:34:35.898Z,44.90
2022-07-30T17:40:27.063Z,45.50
2022-07-30T17:45:04.995Z,45.33
2022-07-30T17:50:09.151Z,45.28
2022-07-30T17:55:14.142Z,45.05
2022-07-30T18:00:17.856Z,45.55
2022-07-30T18:05:20.766Z,45.53
2022-07-30T18:10:25.204Z,45.67
2022-07-30T18:15:28.827Z,46.80
2022-07-30T18:20:48.188Z,45.95
2022-07-30T18:25:54.606Z,45.22
2022-07-30T18:30:57.843Z,45.53
2022-07-30T18:36:00.886Z,45.08
2022-07-30T18:41:05.416Z,45.60
2022-07-30T18:46:08.579Z,45.08
2022-07-30T18:51:14.154Z,45.35
2022-07-30T18:56:18.523Z,45.17
2022-07-30T19:01:22.978Z,45.35
2022-07-30T19:06:26.398Z,44.83
2022-07-30T19:11:31.962Z,44.80
2022-07-30T19:16:36.803Z,45.83
2022-07-30T19:21:39.965Z,44.78
2022-07-30T19:26:51.436Z,44.72
2022-07-30T19:31:54.533Z,44.33
2022-07-30T19:37:00.464Z,44.58
2022-07-30T19:42:05.867Z,44.88
2022-07-30T19:47:09.242Z,44.40
2022-07-30T19:52:23.182Z,44.45
2022-07-30T19:57:45.702Z,44.92
2022-07-30T20:02:52.289Z,45.45
2022-07-30T20:08:04.969Z,44.55
2022-07-30T20:13:44.969Z,45.08
2022-07-30T20:18:50.034Z,44.80
2022-07-30T20:23:55.063Z,44.55
2022-07-30T20:29:00.132Z,44.60
2022-07-30T20:34:03.657Z,44.15
2022-07-30T20:39:09.238Z,44.55
2022-07-30T20:44:23.670Z,44.15
2022-07-30T20:49:35.276Z,44.50
2022-07-30T20:54:43.767Z,44.65
2022-07-30T20:59:49.592Z,44.25
2022-07-30T21:04:56.686Z,44.35
2022-07-30T21:10:02.526Z,44.45
2022-07-30T21:15:23.045Z,44.15
2022-07-30T21:20:27.720Z,45.10
2022-07-30T21:25:33.057Z,44.05
2022-07-30T21:30:37.611Z,44.08
2022-07-30T21:35:41.859Z,44.25
2022-07-30T21:40:45.467Z,44.17
2022-07-30T21:45:54.728Z,43.78
2022-07-30T21:50:58.706Z,43.88
2022-07-30T21:56:01.815Z,44.50
2022-07-30T22:01:17.334Z,44.10
2022-07-30T22:06:21.552Z,43.95
2022-07-30T22:11:27.077Z,44.15
2022-07-30T22:16:47.155Z,43.72
2022-07-30T22:21:50.940Z,44.42
2022-07-30T22:26:54.064Z,43.70
2022-07-30T22:31:58.637Z,43.55
2022-07-30T22:37:02.663Z,44.28
2022-07-30T22:42:07.069Z,43.78
2022-07-30T22:47:21.893Z,43.97
2022-07-30T22:52:49.063Z,44.55
2022-07-30T22:57:56.601Z,44.13
2022-07-30T23:03:01.023Z,44.10
2022-07-30T23:08:05.410Z,44.25
2022-07-30T23:13:08.949Z,44.15
2022-07-30T23:18:15.821Z,43.97
2022-07-30T23:23:18.721Z,43.85
2022-07-30T23:28:21.618Z,43.80
2022-07-30T23:33:25.900Z,43.47
2022-07-30T23:38:29.032Z,43.50
2022-07-30T23:43:32.687Z,43.78
2022-07-30T23:48:37.615Z,43.88
2022-07-30T23:53:40.518Z,43.65
2022-07-30T23:58:45.832Z,43.50
